createdAt,value
2018-02-19T00:01:10.377Z,26.73
2018-02-19T00:03:38.124Z,26.02
2018-02-19T00:06:05.929Z,26.30
2018-02-19T00:08:33.665Z,26.50
2018-02-19T00:11:01.410Z,26.17
2018-02-19T00:13:29.208Z,24.87
2018-02-19T00:15:56.949Z,27.70
2018-02-19T00:18:24.691Z,26.42
2018-02-19T00:20:52.484Z,26.65
2018-02-19T00:23:21.010Z,26.33
2018-02-19T00:25:48.749Z,28.62
2018-02-19T00:28:16.549Z,27.40
2018-02-19T00:30:44.294Z,27.62
2018-02-19T00:33:12.033Z,26.45
2018-02-19T00:35:39.830Z,27.73
2018-02-19T00:38:07.568Z,29.35
2018-02-19T00:40:35.313Z,25.37
2018-02-19T00:43:03.126Z,28.73
2018-02-19T00:45:30.884Z,29.55
2018-02-19T00:47:59.396Z,28.38
2018-02-19T00:50:27.951Z,27.40
2018-02-19T00:52:55.691Z,30.88
2018-02-19T00:55:23.441Z,26.90
2018-02-19T00:57:51.244Z,32.35
2018-02-19T01:00:19.008Z,29.00
2018-02-19T01:02:46.748Z,27.20
2018-02-19T01:05:14.545Z,26.30
2018-02-19T01:07:43.067Z,29.73
2018-02-19T01:10:10.801Z,30.08
2018-02-19T01:12:38.631Z,29.20
2018-02-19T01:15:06.369Z,32.42
2018-02-19T01:17:34.117Z,30.95
2018-02-19T01:20:01.912Z,28.42
2018-02-19T01:22:29.655Z,28.70
2018-02-19T01:24:57.397Z,30.25
2018-02-19T01:27:25.201Z,31.65
2018-02-19T01:29:52.969Z,35.03
2018-02-19T01:32:21.480Z,31.80
2018-02-19T01:34:49.278Z,31.23
2018-02-19T01:37:17.019Z,32.67
2018-02-19T01:39:44.761Z,33.67
2018-02-19T01:42:12.562Z,32.72
2018-02-19T01:44:40.305Z,31.55
2018-02-19T01:47:08.042Z,33.22
2018-02-19T01:49:36.617Z,33.58
2018-02-19T01:52:05.125Z,36.03
2018-02-19T01:54:32.868Z,36.28
2018-02-19T01:57:00.664Z,37.88
2018-02-19T01:59:28.409Z,35.22
2018-02-19T02:01:56.181Z,41.17
2018-02-19T02:04:23.972Z,39.22
2018-02-19T02:06:51.723Z,38.47
2018-02-19T02:09:19.466Z,39.75
2018-02-19T02:11:47.264Z,32.20
2018-02-19T02:14:15.002Z,36.40
2018-02-19T02:16:42.742Z,37.75
2018-02-19T02:19:10.534Z,37.72
2018-02-19T02:21:38.274Z,39.50
2018-02-19T02:24:06.016Z,38.15
2018-02-19T02:26:33.819Z,39.45
2018-02-19T02:29:01.556Z,37.30
2018-02-19T02:31:29.308Z,39.67
2018-02-19T02:33:57.093Z,38.50
2018-02-19T02:36:25.601Z,33.33
2018-02-19T02:38:53.340Z,37.17
2018-02-19T02:41:21.129Z,32.88
2018-02-19T02:43:48.875Z,34.05
2018-02-19T02:46:16.622Z,32.25
2018-02-19T02:48:44.433Z,31.70
2018-02-19T02:51:12.940Z,36.78
2018-02-19T02:53:40.692Z,32.40
2018-02-19T02:56:08.485Z,34.17
2018-02-19T02:58:36.237Z,30.77
2018-02-19T03:01:03.984Z,29.42
2018-02-19T03:03:31.799Z,30.08
2018-02-19T03:05:59.541Z,32.20
2018-02-19T03:08:27.282Z,30.30
2018-02-19T03:10:55.098Z,34.90
2018-02-19T03:13:23.608Z,34.20
2018-02-19T03:15:51.345Z,31.92
2018-02-19T03:18:19.909Z,29.23
2018-02-19T03:20:47.662Z,31.70
2018-02-19T03:23:15.401Z,31.30
2018-02-19T03:25:43.193Z,31.05
2018-02-19T03:28:10.929Z,33.10
2018-02-19T03:30:38.670Z,37.03
2018-02-19T03:33:06.658Z,31.67
2018-02-19T03:35:34.408Z,28.75
2018-02-19T03:38:02.158Z,30.83
2018-02-19T03:40:29.996Z,30.48
2018-02-19T03:42:57.745Z,31.98
2018-02-19T03:45:26.248Z,33.03
2018-02-19T03:47:54.040Z,30.75
2018-02-19T03:50:21.787Z,30.33
2018-02-19T03:52:49.526Z,29.95
2018-02-19T03:55:17.313Z,31.60
2018-02-19T03:57:45.053Z,31.02
2018-02-19T04:00:12.814Z,32.17
2018-02-19T04:02:40.615Z,32.20
2018-02-19T04:05:08.360Z,31.98
2018-02-19T04:07:36.105Z,35.67
2018-02-19T04:10:03.905Z,39.67
2018-02-19T04:12:31.643Z,34.40
2018-02-19T04:14:59.383Z,33.42
2018-02-19T04:17:27.173Z,34.60
2018-02-19T04:19:54.927Z,37.60
2018-02-19T04:22:22.665Z,39.53
2018-02-19T04:24:50.459Z,33.25
2018-02-19T04:27:18.214Z,36.05
2018-02-19T04:29:45.960Z,35.35
2018-02-19T04:32:13.763Z,33.33
2018-02-19T04:34:41.507Z,32.83
2018-02-19T04:37:09.264Z,34.90
2018-02-19T04:39:37.065Z,36.65
2018-02-19T04:42:04.809Z,33.88
2018-02-19T04:57:54.377Z,33.88
2018-02-19T05:00:22.119Z,37.08
2018-02-19T05:02:49.860Z,36.25
2018-02-19T05:05:17.666Z,34.28
2018-02-19T05:07:46.176Z,44.47
2018-02-19T05:10:13.916Z,38.40
2018-02-19T05:12:42.485Z,40.97
2018-02-19T05:15:10.225Z,36.58
2018-02-19T05:17:37.972Z,36.67
2018-02-19T05:20:05.766Z,35.40
2018-02-19T05:22:33.514Z,34.75
2018-02-19T05:25:01.265Z,38.50
2018-02-19T05:27:29.069Z,39.13
2018-02-19T05:29:57.572Z,38.08
2018-02-19T05:32:25.313Z,39.13
2018-02-19T05:34:54.060Z,34.72
2018-02-19T05:37:21.813Z,41.88
2018-02-19T05:39:49.566Z,39.80
2018-02-19T05:42:17.370Z,41.92
2018-02-19T05:44:45.884Z,40.22
2018-02-19T05:47:13.634Z,40.58
2018-02-19T05:49:41.438Z,40.33
2018-02-19T05:52:09.195Z,40.80
2018-02-19T05:54:36.944Z,38.70
2018-02-19T05:57:04.741Z,42.42
2018-02-19T05:59:32.510Z,38.97
2018-02-19T06:02:01.066Z,34.53
2018-02-19T06:04:28.866Z,35.15
2018-02-19T06:06:57.377Z,34.50
2018-02-19T06:09:25.113Z,32.17
2018-02-19T06:11:53.679Z,32.35
2018-02-19T06:14:21.416Z,34.78
2018-02-19T06:16:49.161Z,33.25
2018-02-19T06:19:16.961Z,33.10
2018-02-19T06:21:44.712Z,32.75
2018-02-19T06:24:12.460Z,32.42
2018-02-19T06:26:40.262Z,30.75
2018-02-19T06:29:08.776Z,32.83
2018-02-19T06:31:36.516Z,30.90
2018-02-19T06:34:04.331Z,31.45
2018-02-19T06:36:32.076Z,34.47
2018-02-19T06:38:59.832Z,30.40
2018-02-19T06:41:27.630Z,32.08
2018-02-19T06:43:55.374Z,32.22
2018-02-19T06:46:23.118Z,35.28
2018-02-19T06:48:50.921Z,30.77
2018-02-19T06:51:19.462Z,33.83
2018-02-19T06:53:47.211Z,34.65
2018-02-19T06:56:15.012Z,32.72
2018-02-19T06:58:42.796Z,30.58
2018-02-19T07:01:11.305Z,33.55
2018-02-19T07:03:39.114Z,33.03
2018-02-19T07:06:06.858Z,33.80
2018-02-19T07:08:34.605Z,33.92
2018-02-19T07:11:02.464Z,31.95
2018-02-19T07:13:30.211Z,31.90
2018-02-19T07:15:57.948Z,30.10
2018-02-19T07:18:26.511Z,31.45
2018-02-19T07:20:54.262Z,30.17
2018-02-19T07:23:22.022Z,28.92
2018-02-19T07:25:49.813Z,29.50
2018-02-19T07:28:18.321Z,27.75
2018-02-19T07:30:46.061Z,29.27
2018-02-19T07:33:14.625Z,27.05
2018-02-19T07:35:42.373Z,28.73
2018-02-19T07:38:10.108Z,28.40
2018-02-19T07:40:37.907Z,27.48
2018-02-19T07:43:05.661Z,28.80
2018-02-19T07:45:33.405Z,33.75
2018-02-19T07:48:01.223Z,30.48
2018-02-19T07:50:28.992Z,42.67
2018-02-19T07:52:56.861Z,51.90
2018-02-19T07:55:24.673Z,53.00
2018-02-19T07:57:52.426Z,28.70
2018-02-19T08:00:20.192Z,27.55
2018-02-19T08:02:48.783Z,31.37
2018-02-19T08:05:16.533Z,27.25
2018-02-19T08:07:44.293Z,27.80
2018-02-19T08:10:12.101Z,25.95
2018-02-19T08:12:39.860Z,27.95
2018-02-19T08:15:08.372Z,27.27
2018-02-19T08:17:36.187Z,30.08
2018-02-19T08:20:04.751Z,27.55
2018-02-19T08:22:32.508Z,26.90
2018-02-19T08:25:00.362Z,27.00
2018-02-19T08:27:28.110Z,26.87
2018-02-19T08:29:55.862Z,25.08
2018-02-19T08:32:23.677Z,25.98
2018-02-19T08:34:52.185Z,30.45
2018-02-19T08:37:19.933Z,27.73
2018-02-19T08:39:48.496Z,23.83
2018-02-19T08:42:17.012Z,27.77
2018-02-19T08:44:44.755Z,23.90
2018-02-19T08:47:13.365Z,22.73
2018-02-19T08:49:41.114Z,26.15
2018-02-19T08:52:08.862Z,33.22
2018-02-19T08:54:36.668Z,25.88
2018-02-19T08:57:04.434Z,56.53
2018-02-19T08:59:32.197Z,72.75
2018-02-19T09:02:00.065Z,76.28
2018-02-19T09:04:27.869Z,36.67
2018-02-19T09:06:56.371Z,22.75
2018-02-19T09:09:24.164Z,29.50
2018-02-19T09:11:51.933Z,29.05
2018-02-19T09:14:19.694Z,30.27
2018-02-19T09:16:47.512Z,30.40
2018-02-19T09:19:15.266Z,23.85
2018-02-19T09:21:43.022Z,24.67
2018-02-19T09:24:11.604Z,24.60
2018-02-19T09:26:40.116Z,23.65
2018-02-19T09:29:07.874Z,25.20
2018-02-19T09:31:35.682Z,20.90
2018-02-19T09:34:03.469Z,21.80
2018-02-19T09:36:31.980Z,23.25
2018-02-19T09:38:59.772Z,22.67
2018-02-19T09:41:27.521Z,22.87
2018-02-19T09:43:55.271Z,19.67
2018-02-19T09:46:23.067Z,23.48
2018-02-19T09:48:50.821Z,18.20
2018-02-19T09:51:18.571Z,19.35
2018-02-19T09:53:46.376Z,20.58
2018-02-19T09:56:14.892Z,20.67
2018-02-19T09:58:42.637Z,19.05
2018-02-19T10:01:10.433Z,19.67
2018-02-19T10:03:38.184Z,21.62
2018-02-19T10:06:05.956Z,18.73
2018-02-19T10:08:33.766Z,18.30
2018-02-19T10:11:02.273Z,22.70
2018-02-19T10:13:30.031Z,17.90
2018-02-19T10:15:57.827Z,19.65
2018-02-19T10:18:25.566Z,25.70
2018-02-19T10:20:53.313Z,20.05
2018-02-19T10:23:21.125Z,19.20
2018-02-19T10:25:48.869Z,17.58
2018-02-19T10:28:17.388Z,18.35
2018-02-19T10:30:45.945Z,20.35
2018-02-19T10:33:13.682Z,22.45
2018-02-19T10:35:41.421Z,20.25
2018-02-19T10:38:09.224Z,20.48
2018-02-19T10:40:36.974Z,24.10
2018-02-19T10:43:04.756Z,24.50
2018-02-19T10:45:32.552Z,22.02
2018-02-19T10:48:00.297Z,25.95
2018-02-19T10:50:28.810Z,24.63
2018-02-19T10:52:56.622Z,23.58
2018-02-19T10:55:24.369Z,32.00
2018-02-19T10:57:52.114Z,28.33
2018-02-19T11:00:25.559Z,27.67
2018-02-19T11:02:54.061Z,23.95
2018-02-19T11:05:21.802Z,20.88
2018-02-19T11:07:50.371Z,25.67
2018-02-19T11:10:18.126Z,24.10
2018-02-19T11:12:45.880Z,23.25
2018-02-19T11:15:13.683Z,22.20
2018-02-19T11:17:42.188Z,22.60
2018-02-19T11:20:09.963Z,22.77
2018-02-19T11:22:37.764Z,24.40
2018-02-19T11:25:05.543Z,24.23
2018-02-19T11:27:34.052Z,23.42
2018-02-19T11:30:01.844Z,21.60
2018-02-19T11:32:29.598Z,23.15
2018-02-19T11:34:57.352Z,23.10
2018-02-19T11:37:25.339Z,22.00
2018-02-19T11:39:53.082Z,25.15
2018-02-19T11:42:20.829Z,23.38
2018-02-19T11:44:49.417Z,24.67
2018-02-19T11:47:17.160Z,24.48
2018-02-19T11:49:44.919Z,24.65
2018-02-19T11:52:12.727Z,26.05
2018-02-19T11:54:40.497Z,22.17
2018-02-19T11:57:08.256Z,22.45
2018-02-19T11:59:36.813Z,24.65
2018-02-19T12:02:04.574Z,21.87
2018-02-19T12:04:33.080Z,23.35
2018-02-19T12:07:00.872Z,22.73
2018-02-19T12:09:28.645Z,22.85
2018-02-19T12:11:56.388Z,22.15
2018-02-19T12:14:24.956Z,24.50
2018-02-19T12:16:52.701Z,24.37
2018-02-19T12:19:20.442Z,21.75
2018-02-19T12:21:48.231Z,23.08
2018-02-19T12:24:15.979Z,23.42
2018-02-19T12:26:43.735Z,25.75
2018-02-19T12:29:11.541Z,23.27
2018-02-19T12:31:40.064Z,26.40
2018-02-19T12:34:07.829Z,24.52
2018-02-19T12:36:35.619Z,22.55
2018-02-19T12:39:03.413Z,25.65
2018-02-19T12:41:31.925Z,25.77
2018-02-19T12:43:59.752Z,25.58
2018-02-19T12:46:27.508Z,29.75
2018-02-19T12:48:56.030Z,23.50
2018-02-19T12:51:23.845Z,24.12
2018-02-19T12:53:52.361Z,23.08
2018-02-19T12:56:20.105Z,24.70
2018-02-19T12:58:47.919Z,24.17
2018-02-19T13:01:15.665Z,24.45
2018-02-19T13:03:43.409Z,25.80
2018-02-19T13:06:11.226Z,26.33
2018-02-19T13:08:38.980Z,27.83
2018-02-19T13:11:06.745Z,27.13
2018-02-19T13:13:34.566Z,27.25
2018-02-19T13:16:02.311Z,26.73
2018-02-19T13:18:30.058Z,28.65
2018-02-19T13:20:57.861Z,29.40
2018-02-19T13:23:25.608Z,28.33
2018-02-19T13:25:53.379Z,25.17
2018-02-19T13:28:21.186Z,25.88
2018-02-19T13:30:48.941Z,21.65
2018-02-19T13:33:16.693Z,26.33
2018-02-19T13:35:44.501Z,22.85
2018-02-19T13:38:12.243Z,23.98
2018-02-19T13:40:40.749Z,23.77
2018-02-19T13:43:08.551Z,25.55
2018-02-19T13:45:37.064Z,22.67
2018-02-19T13:48:05.581Z,24.95
2018-02-19T13:50:33.389Z,25.52
2018-02-19T13:53:01.139Z,22.85
2018-02-19T13:55:28.886Z,22.67
2018-02-19T13:57:56.682Z,24.55
2018-02-19T14:00:25.206Z,23.87
2018-02-19T14:02:52.970Z,20.60
2018-02-19T14:05:20.764Z,22.45
2018-02-19T14:07:48.506Z,23.35
2018-02-19T14:10:16.258Z,23.52
2018-02-19T14:12:44.053Z,21.70
2018-02-19T14:15:11.807Z,26.35
2018-02-19T14:17:39.566Z,22.70
2018-02-19T14:20:07.368Z,22.75
2018-02-19T14:22:35.989Z,22.33
2018-02-19T14:25:03.752Z,21.25
2018-02-19T14:27:31.548Z,23.83
2018-02-19T14:29:59.284Z,20.45
2018-02-19T14:32:27.028Z,22.73
2018-02-19T14:34:54.840Z,23.85
2018-02-19T14:37:22.576Z,25.67
2018-02-19T14:39:50.325Z,27.50
2018-02-19T14:42:18.134Z,25.77
2018-02-19T14:44:46.661Z,28.55
2018-02-19T14:47:14.398Z,23.75
2018-02-19T14:49:42.184Z,26.52
2018-02-19T14:52:09.940Z,24.48
2018-02-19T14:54:37.696Z,26.37
2018-02-19T14:57:05.492Z,25.55
2018-02-19T14:59:33.237Z,22.85
2018-02-19T15:02:00.994Z,24.55
2018-02-19T15:04:28.798Z,25.45
2018-02-19T15:06:56.537Z,23.77
2018-02-19T15:09:25.085Z,23.05
2018-02-19T15:11:52.888Z,22.67
2018-02-19T15:14:20.635Z,22.23
2018-02-19T15:16:48.382Z,23.27
2018-02-19T15:19:16.185Z,26.50
2018-02-19T15:21:43.957Z,34.70
2018-02-19T15:24:11.708Z,27.90
2018-02-19T15:26:39.520Z,26.77
2018-02-19T15:29:07.268Z,25.08
2018-02-19T15:31:35.018Z,27.20
2018-02-19T15:34:03.594Z,25.58
2018-02-19T15:36:31.348Z,25.95
2018-02-19T15:38:59.125Z,25.42
2018-02-19T15:41:27.701Z,23.35
2018-02-19T15:43:56.207Z,24.73
2018-02-19T15:46:23.958Z,24.92
2018-02-19T15:48:51.797Z,25.75
2018-02-19T15:51:19.553Z,23.98
2018-02-19T15:53:47.295Z,26.70
2018-02-19T15:56:15.092Z,26.87
2018-02-19T15:58:43.612Z,26.85
2018-02-19T16:01:11.351Z,27.00
2018-02-19T16:03:39.150Z,28.90
2018-02-19T16:06:06.903Z,28.48
2018-02-19T16:08:34.662Z,28.20
2018-02-19T16:11:02.461Z,27.13
2018-02-19T16:13:30.217Z,28.58
2018-02-19T16:15:57.985Z,26.73
2018-02-19T16:18:25.810Z,28.05
2018-02-19T16:20:53.556Z,29.33
2018-02-19T16:23:21.304Z,28.12
2018-02-19T16:25:49.100Z,27.15
2018-02-19T16:28:16.840Z,30.02
2018-02-19T16:30:44.577Z,29.45
2018-02-19T16:33:13.176Z,32.30
2018-02-19T16:35:40.921Z,32.03
2018-02-19T16:38:09.448Z,30.05
2018-02-19T16:40:37.247Z,31.98
2018-02-19T16:43:04.984Z,29.55
2018-02-19T16:45:33.690Z,28.60
2018-02-19T16:48:01.501Z,29.15
2018-02-19T16:50:29.253Z,29.87
2018-02-19T16:52:57.005Z,29.70
2018-02-19T16:55:24.817Z,33.65
2018-02-19T16:57:52.557Z,32.17
2018-02-19T17:00:20.314Z,30.90
2018-02-19T17:02:48.137Z,31.75
2018-02-19T17:05:16.649Z,35.88
2018-02-19T17:07:44.389Z,39.95
2018-02-19T17:10:12.233Z,38.20
2018-02-19T17:12:39.993Z,38.75
2018-02-19T17:15:07.744Z,38.30
2018-02-19T17:17:35.546Z,39.67
2018-02-19T17:20:03.313Z,37.75
2018-02-19T17:22:31.066Z,36.40
2018-02-19T17:24:58.861Z,34.75
2018-02-19T17:27:26.597Z,31.30
2018-02-19T17:29:54.337Z,29.70
2018-02-19T17:32:22.901Z,30.25
2018-02-19T17:34:53.977Z,35.47
2018-02-19T17:37:21.731Z,32.58
2018-02-19T17:39:49.525Z,34.17
2018-02-19T17:42:17.280Z,33.42
2018-02-19T17:44:45.034Z,30.48
2018-02-19T17:47:12.870Z,35.85
2018-02-19T17:49:41.376Z,35.67
2018-02-19T17:52:09.113Z,33.22
2018-02-19T17:54:37.670Z,32.28
2018-02-19T17:57:05.416Z,33.63
2018-02-19T17:59:33.167Z,34.13
2018-02-19T18:02:00.973Z,32.20
2018-02-19T18:04:29.484Z,35.20
2018-02-19T18:06:57.240Z,33.80
2018-02-19T18:09:25.038Z,35.33
2018-02-19T18:11:52.798Z,35.25
2018-02-19T18:14:20.547Z,36.67
2018-02-19T18:16:48.336Z,33.60
2018-02-19T18:19:16.074Z,35.05
2018-02-19T18:21:43.820Z,36.75
2018-02-19T18:24:11.621Z,36.38
2018-02-19T18:26:39.372Z,34.88
2018-02-19T18:29:07.132Z,36.88
2018-02-19T18:31:34.934Z,34.97
2018-02-19T18:34:03.441Z,33.13
2018-02-19T18:36:31.181Z,32.95
2018-02-19T18:38:58.977Z,35.85
2018-02-19T18:41:26.724Z,37.40
2018-02-19T18:43:54.475Z,33.05
2018-02-19T18:46:22.275Z,32.30
2018-02-19T18:48:50.860Z,36.58
2018-02-19T18:51:18.610Z,34.55
2018-02-19T18:53:46.413Z,33.85
2018-02-19T18:56:14.493Z,36.00
2018-02-19T18:58:42.299Z,35.70
2018-02-19T19:01:10.150Z,36.35
2018-02-19T19:03:37.895Z,33.90
2018-02-19T19:06:05.636Z,35.95
2018-02-19T19:08:46.074Z,36.72
2018-02-19T19:11:13.830Z,35.83
2018-02-19T19:13:41.696Z,33.70
2018-02-19T19:16:09.494Z,43.55
2018-02-19T19:18:38.038Z,38.78
2018-02-19T19:21:05.783Z,37.78
2018-02-19T19:23:33.590Z,35.50
2018-02-19T19:26:02.109Z,36.90
2018-02-19T19:28:29.858Z,36.72
2018-02-19T19:30:57.679Z,36.17
2018-02-19T19:33:26.214Z,38.90
2018-02-19T19:35:53.977Z,40.12
2018-02-19T19:38:21.865Z,39.72
2018-02-19T19:40:49.623Z,42.08
2018-02-19T19:43:17.413Z,43.70
2018-02-19T19:45:45.222Z,40.47
2018-02-19T19:48:12.984Z,44.13
2018-02-19T19:50:40.850Z,41.58
2018-02-19T19:53:08.693Z,43.83
2018-02-19T19:55:37.241Z,46.97
2018-02-19T19:58:05.009Z,48.80
2018-02-19T20:00:33.598Z,40.28
2018-02-19T20:03:02.135Z,44.60
2018-02-19T20:05:29.887Z,45.30
2018-02-19T20:07:57.708Z,46.90
2018-02-19T20:10:26.245Z,46.40
2018-02-19T20:12:54.002Z,45.92
2018-02-19T20:15:21.807Z,48.65
2018-02-19T20:17:50.333Z,49.05
2018-02-19T20:20:18.080Z,51.42
2018-02-19T20:22:48.029Z,50.53
2018-02-19T20:25:16.149Z,45.95
2018-02-19T20:27:43.897Z,49.42
2018-02-19T20:30:12.470Z,50.28
2018-02-19T20:32:41.006Z,48.63
2018-02-19T20:35:08.773Z,54.30
2018-02-19T20:37:36.593Z,47.33
2018-02-19T20:40:04.473Z,50.17
2018-02-19T20:42:32.228Z,49.65
2018-02-19T20:45:00.038Z,48.97
2018-02-19T20:47:27.798Z,48.40
2018-02-19T20:49:55.566Z,49.90
2018-02-19T20:52:23.381Z,46.60
2018-02-19T20:54:51.139Z,42.58
2018-02-19T20:57:18.881Z,43.55
2018-02-19T20:59:47.457Z,48.35
2018-02-19T21:02:15.997Z,47.62
2018-02-19T21:04:43.751Z,46.28
2018-02-19T21:07:11.568Z,43.55
2018-02-19T21:09:40.090Z,42.62
2018-02-19T21:12:07.937Z,42.78
2018-02-19T21:14:35.896Z,41.88
2018-02-19T21:17:03.714Z,45.10
2018-02-19T21:19:31.490Z,36.45
2018-02-19T21:21:59.309Z,42.05
2018-02-19T21:24:27.091Z,38.92
2018-02-19T21:26:54.842Z,40.95
2018-02-19T21:29:22.650Z,39.50
2018-02-19T21:31:51.169Z,43.13
2018-02-19T21:34:18.998Z,39.70
2018-02-19T21:36:46.804Z,39.60
2018-02-19T21:39:14.558Z,37.10
2018-02-19T21:41:42.304Z,39.88
2018-02-19T21:44:10.383Z,36.90
2018-02-19T21:46:38.281Z,36.72
2018-02-19T21:49:06.030Z,38.70
2018-02-19T21:51:33.860Z,39.17
2018-02-19T21:54:01.616Z,34.75
2018-02-19T21:56:29.373Z,36.63
2018-02-19T21:58:57.185Z,33.50
2018-02-19T22:01:24.932Z,32.53
2018-02-19T22:03:52.701Z,32.13
2018-02-19T22:06:20.725Z,32.42
2018-02-19T22:08:48.516Z,33.13
2018-02-19T22:11:16.283Z,34.08
2018-02-19T22:13:44.089Z,33.65
2018-02-19T22:16:12.626Z,30.50
2018-02-19T22:18:41.137Z,31.30
2018-02-19T22:21:08.964Z,32.50
2018-02-19T22:23:36.722Z,32.15
2018-02-19T22:26:04.469Z,29.00
2018-02-19T22:28:32.275Z,34.00
2018-02-19T22:31:00.035Z,30.77
2018-02-19T22:33:27.811Z,31.37
2018-02-19T22:35:56.413Z,27.75
2018-02-19T22:38:24.952Z,28.92
2018-02-19T22:40:52.728Z,50.55
2018-02-19T22:43:20.558Z,30.70
2018-02-19T22:45:48.319Z,30.83
2018-02-19T22:48:16.078Z,31.45
2018-02-19T22:50:43.887Z,31.37
2018-02-19T22:53:11.654Z,30.48
2018-02-19T22:55:40.188Z,33.30
2018-02-19T22:58:07.984Z,36.00
2018-02-19T23:00:35.741Z,36.00
2018-02-19T23:03:03.487Z,33.85
2018-02-19T23:05:31.302Z,32.58
2018-02-19T23:07:59.048Z,34.90
2018-02-19T23:10:27.572Z,35.30
2018-02-19T23:12:55.402Z,34.78
2018-02-19T23:15:23.922Z,32.03
2018-02-19T23:17:51.682Z,34.70
2018-02-19T23:20:19.874Z,33.40
2018-02-19T23:22:47.674Z,35.78
2018-02-19T23:25:16.198Z,33.38
2018-02-19T23:27:44.015Z,35.15
2018-02-19T23:30:12.609Z,35.35
2018-02-19T23:32:40.362Z,30.75
2018-02-19T23:35:08.938Z,35.05
2018-02-19T23:37:37.458Z,31.60
2018-02-19T23:40:05.201Z,33.95
2018-02-19T23:42:33.011Z,33.10
2018-02-19T23:45:00.778Z,31.90
2018-02-19T23:47:28.533Z,31.33
2018-02-19T23:49:56.352Z,31.98
2018-02-19T23:52:24.105Z,30.62
2018-02-19T23:54:51.891Z,32.38
2018-02-19T23:57:19.690Z,31.75
2018-02-19T23:59:47.461Z,32.33
